sensor_id;sensor_type;location;lat;lon;timestamp;P1;durP1;ratioP1;P2;durP2;ratioP2
80215;SDS011;69532;37.974;23.708;2023-04-25T00:01:24;8.68;;;4.85;;
80215;SDS011;69532;37.974;23.708;2023-04-25T00:03:50;8.45;;;5.15;;
80215;SDS011;69532;37.974;23.708;2023-04-25T00:06:16;7.60;;;4.93;;
80215;SDS011;69532;37.974;23.708;2023-04-25T00:08:42;7.90;;;4.78;;
80215;SDS011;69532;37.974;23.708;2023-04-25T00:11:08;7.22;;;4.95;;
80215;SDS011;69532;37.974;23.708;2023-04-25T00:13:34;8.10;;;4.88;;
80215;SDS011;69532;37.974;23.708;2023-04-25T00:16:00;7.97;;;4.93;;
80215;SDS011;69532;37.974;23.708;2023-04-25T00:18:27;7.68;;;4.55;;
80215;SDS011;69532;37.974;23.708;2023-04-25T00:20:54;7.90;;;4.95;;
80215;SDS011;69532;37.974;23.708;2023-04-25T00:23:21;7.82;;;5.00;;
80215;SDS011;69532;37.974;23.708;2023-04-25T00:25:47;8.05;;;4.65;;
80215;SDS011;69532;37.974;23.708;2023-04-25T00:28:14;9.10;;;5.00;;
80215;SDS011;69532;37.974;23.708;2023-04-25T00:30:40;8.18;;;4.63;;
80215;SDS011;69532;37.974;23.708;2023-04-25T00:33:06;7.43;;;5.07;;
80215;SDS011;69532;37.974;23.708;2023-04-25T00:35:32;6.93;;;4.20;;
80215;SDS011;69532;37.974;23.708;2023-04-25T00:37:59;7.50;;;4.53;;
80215;SDS011;69532;37.974;23.708;2023-04-25T00:40:25;7.07;;;4.82;;
80215;SDS011;69532;37.974;23.708;2023-04-25T00:42:51;7.22;;;4.65;;
80215;SDS011;69532;37.974;23.708;2023-04-25T00:45:18;8.52;;;4.78;;
80215;SDS011;69532;37.974;23.708;2023-04-25T00:47:44;7.25;;;4.63;;
80215;SDS011;69532;37.974;23.708;2023-04-25T00:50:10;7.55;;;4.55;;
80215;SDS011;69532;37.974;23.708;2023-04-25T00:52:40;7.93;;;4.93;;
80215;SDS011;69532;37.974;23.708;2023-04-25T00:55:08;7.20;;;4.97;;
80215;SDS011;69532;37.974;23.708;2023-04-25T00:57:35;7.05;;;4.90;;
80215;SDS011;69532;37.974;23.708;2023-04-25T01:00:00;7.60;;;4.80;;
80215;SDS011;69532;37.974;23.708;2023-04-25T01:02:27;7.93;;;5.00;;
80215;SDS011;69532;37.974;23.708;2023-04-25T01:04:53;6.65;;;4.50;;
80215;SDS011;69532;37.974;23.708;2023-04-25T01:07:19;7.22;;;4.45;;
80215;SDS011;69532;37.974;23.708;2023-04-25T01:09:45;7.40;;;4.50;;
80215;SDS011;69532;37.974;23.708;2023-04-25T01:12:11;7.97;;;4.82;;
80215;SDS011;69532;37.974;23.708;2023-04-25T01:14:38;6.82;;;4.72;;
80215;SDS011;69532;37.974;23.708;2023-04-25T01:17:03;7.97;;;4.82;;
80215;SDS011;69532;37.974;23.708;2023-04-25T01:19:29;7.72;;;4.80;;
80215;SDS011;69532;37.974;23.708;2023-04-25T01:21:55;8.13;;;4.65;;
80215;SDS011;69532;37.974;23.708;2023-04-25T01:24:22;7.38;;;5.20;;
80215;SDS011;69532;37.974;23.708;2023-04-25T01:26:48;7.13;;;4.70;;
80215;SDS011;69532;37.974;23.708;2023-04-25T01:29:18;7.35;;;4.70;;
80215;SDS011;69532;37.974;23.708;2023-04-25T01:31:45;7.68;;;4.70;;
80215;SDS011;69532;37.974;23.708;2023-04-25T01:34:12;7.88;;;4.93;;
80215;SDS011;69532;37.974;23.708;2023-04-25T01:36:38;7.90;;;4.68;;
80215;SDS011;69532;37.974;23.708;2023-04-25T01:39:05;8.65;;;5.05;;
80215;SDS011;69532;37.974;23.708;2023-04-25T01:41:31;7.18;;;4.90;;
80215;SDS011;69532;37.974;23.708;2023-04-25T01:43:57;7.53;;;4.85;;
80215;SDS011;69532;37.974;23.708;2023-04-25T01:46:23;7.28;;;4.72;;
80215;SDS011;69532;37.974;23.708;2023-04-25T01:48:49;7.63;;;4.60;;
80215;SDS011;69532;37.974;23.708;2023-04-25T01:51:15;7.85;;;4.47;;
80215;SDS011;69532;37.974;23.708;2023-04-25T01:53:41;7.43;;;4.70;;
80215;SDS011;69532;37.974;23.708;2023-04-25T01:56:07;6.90;;;4.70;;
80215;SDS011;69532;37.974;23.708;2023-04-25T01:58:33;7.20;;;4.50;;
80215;SDS011;69532;37.974;23.708;2023-04-25T02:00:59;7.85;;;4.30;;
80215;SDS011;69532;37.974;23.708;2023-04-25T02:03:25;7.03;;;4.32;;
80215;SDS011;69532;37.974;23.708;2023-04-25T02:05:50;7.30;;;4.80;;
80215;SDS011;69532;37.974;23.708;2023-04-25T02:08:16;6.80;;;4.60;;
80215;SDS011;69532;37.974;23.708;2023-04-25T02:10:43;8.60;;;4.68;;
80215;SDS011;69532;37.974;23.708;2023-04-25T02:13:08;7.22;;;4.50;;
80215;SDS011;69532;37.974;23.708;2023-04-25T02:15:34;6.55;;;4.30;;
80215;SDS011;69532;37.974;23.708;2023-04-25T02:18:00;7.32;;;4.43;;
80215;SDS011;69532;37.974;23.708;2023-04-25T02:20:27;7.93;;;4.57;;
80215;SDS011;69532;37.974;23.708;2023-04-25T02:22:53;7.25;;;4.35;;
80215;SDS011;69532;37.974;23.708;2023-04-25T02:25:19;7.57;;;4.40;;
80215;SDS011;69532;37.974;23.708;2023-04-25T02:27:45;6.95;;;4.43;;
80215;SDS011;69532;37.974;23.708;2023-04-25T02:30:12;8.68;;;4.68;;
80215;SDS011;69532;37.974;23.708;2023-04-25T02:32:38;7.22;;;4.20;;
80215;SDS011;69532;37.974;23.708;2023-04-25T02:35:04;7.63;;;4.38;;
80215;SDS011;69532;37.974;23.708;2023-04-25T02:37:31;7.20;;;4.20;;
80215;SDS011;69532;37.974;23.708;2023-04-25T02:39:58;6.88;;;3.85;;
80215;SDS011;69532;37.974;23.708;2023-04-25T02:42:23;9.88;;;4.60;;
80215;SDS011;69532;37.974;23.708;2023-04-25T02:44:49;7.18;;;4.80;;
80215;SDS011;69532;37.974;23.708;2023-04-25T02:47:15;7.32;;;4.72;;
80215;SDS011;69532;37.974;23.708;2023-04-25T02:49:41;8.27;;;4.38;;
80215;SDS011;69532;37.974;23.708;2023-04-25T02:52:06;7.35;;;4.35;;
80215;SDS011;69532;37.974;23.708;2023-04-25T02:54:32;7.25;;;4.32;;
80215;SDS011;69532;37.974;23.708;2023-04-25T02:56:58;7.95;;;4.68;;
80215;SDS011;69532;37.974;23.708;2023-04-25T02:59:23;8.07;;;4.95;;
80215;SDS011;69532;37.974;23.708;2023-04-25T03:01:49;6.78;;;4.45;;
80215;SDS011;69532;37.974;23.708;2023-04-25T03:04:15;9.52;;;4.43;;
80215;SDS011;69532;37.974;23.708;2023-04-25T03:06:41;10.35;;;4.63;;
80215;SDS011;69532;37.974;23.708;2023-04-25T03:09:07;7.13;;;4.68;;
80215;SDS011;69532;37.974;23.708;2023-04-25T03:11:32;7.50;;;4.35;;
80215;SDS011;69532;37.974;23.708;2023-04-25T03:13:58;7.15;;;4.60;;
80215;SDS011;69532;37.974;23.708;2023-04-25T03:16:24;7.88;;;4.18;;
80215;SDS011;69532;37.974;23.708;2023-04-25T03:18:50;8.13;;;4.53;;
80215;SDS011;69532;37.974;23.708;2023-04-25T03:21:16;6.90;;;4.50;;
80215;SDS011;69532;37.974;23.708;2023-04-25T03:23:42;8.38;;;4.68;;
80215;SDS011;69532;37.974;23.708;2023-04-25T03:26:07;9.35;;;4.53;;
80215;SDS011;69532;37.974;23.708;2023-04-25T03:28:33;8.07;;;4.60;;
80215;SDS011;69532;37.974;23.708;2023-04-25T03:30:59;10.30;;;4.50;;
80215;SDS011;69532;37.974;23.708;2023-04-25T03:33:24;6.80;;;4.50;;
80215;SDS011;69532;37.974;23.708;2023-04-25T03:35:50;8.27;;;4.47;;
80215;SDS011;69532;37.974;23.708;2023-04-25T03:38:17;7.78;;;4.88;;
80215;SDS011;69532;37.974;23.708;2023-04-25T03:40:42;7.78;;;4.50;;
80215;SDS011;69532;37.974;23.708;2023-04-25T03:43:08;9.35;;;4.57;;
80215;SDS011;69532;37.974;23.708;2023-04-25T03:45:34;8.95;;;4.65;;
80215;SDS011;69532;37.974;23.708;2023-04-25T03:48:00;8.57;;;4.72;;
80215;SDS011;69532;37.974;23.708;2023-04-25T03:50:25;10.02;;;5.10;;
80215;SDS011;69532;37.974;23.708;2023-04-25T03:52:51;9.68;;;4.68;;
80215;SDS011;69532;37.974;23.708;2023-04-25T03:55:17;8.30;;;4.72;;
80215;SDS011;69532;37.974;23.708;2023-04-25T03:57:43;11.18;;;4.65;;
80215;SDS011;69532;37.974;23.708;2023-04-25T04:00:09;8.30;;;4.85;;
80215;SDS011;69532;37.974;23.708;2023-04-25T04:02:35;8.63;;;4.32;;
80215;SDS011;69532;37.974;23.708;2023-04-25T04:05:02;10.35;;;4.82;;
80215;SDS011;69532;37.974;23.708;2023-04-25T04:07:29;7.82;;;4.47;;
80215;SDS011;69532;37.974;23.708;2023-04-25T04:09:57;8.65;;;4.78;;
80215;SDS011;69532;37.974;23.708;2023-04-25T04:12:22;10.65;;;5.22;;
80215;SDS011;69532;37.974;23.708;2023-04-25T04:14:48;11.38;;;5.07;;
80215;SDS011;69532;37.974;23.708;2023-04-25T04:17:14;15.27;;;5.25;;
80215;SDS011;69532;37.974;23.708;2023-04-25T04:19:39;21.55;;;5.82;;
80215;SDS011;69532;37.974;23.708;2023-04-25T04:22:05;21.50;;;6.78;;
80215;SDS011;69532;37.974;23.708;2023-04-25T04:24:31;17.00;;;4.93;;
80215;SDS011;69532;37.974;23.708;2023-04-25T04:26:57;17.17;;;5.70;;
80215;SDS011;69532;37.974;23.708;2023-04-25T04:29:24;14.32;;;5.03;;
80215;SDS011;69532;37.974;23.708;2023-04-25T04:31:50;13.15;;;4.70;;
80215;SDS011;69532;37.974;23.708;2023-04-25T04:34:17;14.02;;;5.30;;
80215;SDS011;69532;37.974;23.708;2023-04-25T04:36:43;9.30;;;4.70;;
80215;SDS011;69532;37.974;23.708;2023-04-25T04:39:11;12.02;;;4.70;;
80215;SDS011;69532;37.974;23.708;2023-04-25T04:41:38;15.27;;;4.80;;
80215;SDS011;69532;37.974;23.708;2023-04-25T04:44:04;9.60;;;4.65;;
80215;SDS011;69532;37.974;23.708;2023-04-25T04:46:31;14.35;;;4.75;;
80215;SDS011;69532;37.974;23.708;2023-04-25T04:49:04;9.18;;;4.45;;
80215;SDS011;69532;37.974;23.708;2023-04-25T04:51:30;11.52;;;4.93;;
80215;SDS011;69532;37.974;23.708;2023-04-25T04:53:56;9.23;;;4.70;;
80215;SDS011;69532;37.974;23.708;2023-04-25T04:56:23;11.40;;;4.50;;
80215;SDS011;69532;37.974;23.708;2023-04-25T04:58:50;12.45;;;4.47;;
80215;SDS011;69532;37.974;23.708;2023-04-25T05:01:17;9.52;;;4.22;;
80215;SDS011;69532;37.974;23.708;2023-04-25T05:03:43;7.82;;;4.30;;
80215;SDS011;69532;37.974;23.708;2023-04-25T05:06:09;8.05;;;4.70;;
80215;SDS011;69532;37.974;23.708;2023-04-25T05:08:34;9.90;;;4.47;;
80215;SDS011;69532;37.974;23.708;2023-04-25T05:11:01;8.63;;;4.43;;
80215;SDS011;69532;37.974;23.708;2023-04-25T05:13:27;7.90;;;4.65;;
80215;SDS011;69532;37.974;23.708;2023-04-25T05:15:52;7.55;;;4.95;;
80215;SDS011;69532;37.974;23.708;2023-04-25T05:18:18;11.45;;;5.07;;
80215;SDS011;69532;37.974;23.708;2023-04-25T05:20:44;10.73;;;5.68;;
80215;SDS011;69532;37.974;23.708;2023-04-25T05:23:10;10.25;;;5.68;;
80215;SDS011;69532;37.974;23.708;2023-04-25T05:25:35;11.60;;;5.60;;
80215;SDS011;69532;37.974;23.708;2023-04-25T05:28:01;8.02;;;4.95;;
80215;SDS011;69532;37.974;23.708;2023-04-25T05:30:27;10.82;;;5.75;;
80215;SDS011;69532;37.974;23.708;2023-04-25T05:32:53;8.20;;;4.68;;
80215;SDS011;69532;37.974;23.708;2023-04-25T05:35:18;7.88;;;5.35;;
80215;SDS011;69532;37.974;23.708;2023-04-25T05:37:44;8.15;;;4.90;;
80215;SDS011;69532;37.974;23.708;2023-04-25T05:40:10;8.60;;;4.53;;
80215;SDS011;69532;37.974;23.708;2023-04-25T05:42:36;7.10;;;4.70;;
80215;SDS011;69532;37.974;23.708;2023-04-25T05:45:02;8.95;;;4.30;;
80215;SDS011;69532;37.974;23.708;2023-04-25T05:47:28;7.32;;;3.92;;
80215;SDS011;69532;37.974;23.708;2023-04-25T05:49:53;7.53;;;3.90;;
80215;SDS011;69532;37.974;23.708;2023-04-25T05:52:19;7.18;;;4.18;;
80215;SDS011;69532;37.974;23.708;2023-04-25T05:54:45;7.60;;;3.60;;
80215;SDS011;69532;37.974;23.708;2023-04-25T05:57:23;6.28;;;3.28;;
80215;SDS011;69532;37.974;23.708;2023-04-25T05:59:50;6.57;;;3.60;;
80215;SDS011;69532;37.974;23.708;2023-04-25T06:02:17;6.97;;;3.40;;
80215;SDS011;69532;37.974;23.708;2023-04-25T06:04:43;6.55;;;3.65;;
80215;SDS011;69532;37.974;23.708;2023-04-25T06:07:08;5.95;;;3.22;;
80215;SDS011;69532;37.974;23.708;2023-04-25T06:09:34;7.03;;;3.05;;
80215;SDS011;69532;37.974;23.708;2023-04-25T06:12:00;6.18;;;3.28;;
80215;SDS011;69532;37.974;23.708;2023-04-25T06:14:26;5.53;;;2.72;;
80215;SDS011;69532;37.974;23.708;2023-04-25T06:16:52;6.00;;;2.83;;
80215;SDS011;69532;37.974;23.708;2023-04-25T06:19:19;5.22;;;2.45;;
80215;SDS011;69532;37.974;23.708;2023-04-25T06:21:45;6.82;;;3.13;;
80215;SDS011;69532;37.974;23.708;2023-04-25T06:24:11;5.20;;;2.72;;
80215;SDS011;69532;37.974;23.708;2023-04-25T06:26:37;5.95;;;2.50;;
80215;SDS011;69532;37.974;23.708;2023-04-25T06:29:02;7.43;;;2.70;;
80215;SDS011;69532;37.974;23.708;2023-04-25T06:31:28;5.32;;;2.50;;
80215;SDS011;69532;37.974;23.708;2023-04-25T06:33:54;5.50;;;2.40;;
80215;SDS011;69532;37.974;23.708;2023-04-25T06:36:20;5.43;;;2.33;;
80215;SDS011;69532;37.974;23.708;2023-04-25T06:38:51;5.53;;;2.83;;
80215;SDS011;69532;37.974;23.708;2023-04-25T06:41:20;5.88;;;2.30;;
80215;SDS011;69532;37.974;23.708;2023-04-25T06:43:46;6.80;;;2.45;;
80215;SDS011;69532;37.974;23.708;2023-04-25T06:46:11;5.88;;;2.45;;
80215;SDS011;69532;37.974;23.708;2023-04-25T06:48:37;4.28;;;2.00;;
80215;SDS011;69532;37.974;23.708;2023-04-25T06:51:03;5.35;;;2.47;;
80215;SDS011;69532;37.974;23.708;2023-04-25T06:53:29;4.53;;;2.20;;
80215;SDS011;69532;37.974;23.708;2023-04-25T06:55:55;5.85;;;2.25;;
80215;SDS011;69532;37.974;23.708;2023-04-25T06:58:20;5.47;;;2.33;;
80215;SDS011;69532;37.974;23.708;2023-04-25T07:00:46;7.30;;;2.50;;
80215;SDS011;69532;37.974;23.708;2023-04-25T07:03:12;6.90;;;2.88;;
80215;SDS011;69532;37.974;23.708;2023-04-25T07:05:38;6.82;;;2.55;;
80215;SDS011;69532;37.974;23.708;2023-04-25T07:08:04;5.38;;;2.95;;
80215;SDS011;69532;37.974;23.708;2023-04-25T07:10:30;5.90;;;2.90;;
80215;SDS011;69532;37.974;23.708;2023-04-25T07:12:55;5.97;;;2.58;;
80215;SDS011;69532;37.974;23.708;2023-04-25T07:15:21;5.95;;;2.80;;
80215;SDS011;69532;37.974;23.708;2023-04-25T07:17:47;5.88;;;2.63;;
80215;SDS011;69532;37.974;23.708;2023-04-25T07:20:12;7.45;;;3.10;;
80215;SDS011;69532;37.974;23.708;2023-04-25T07:22:38;5.97;;;2.85;;
80215;SDS011;69532;37.974;23.708;2023-04-25T07:25:04;6.72;;;2.50;;
80215;SDS011;69532;37.974;23.708;2023-04-25T07:27:31;4.70;;;2.30;;
80215;SDS011;69532;37.974;23.708;2023-04-25T07:29:57;6.30;;;2.60;;
80215;SDS011;69532;37.974;23.708;2023-04-25T07:32:22;7.00;;;2.38;;
80215;SDS011;69532;37.974;23.708;2023-04-25T07:34:48;5.40;;;2.22;;
80215;SDS011;69532;37.974;23.708;2023-04-25T07:37:14;5.63;;;2.20;;
80215;SDS011;69532;37.974;23.708;2023-04-25T07:39:40;5.22;;;2.33;;
80215;SDS011;69532;37.974;23.708;2023-04-25T07:42:06;7.10;;;2.53;;
80215;SDS011;69532;37.974;23.708;2023-04-25T07:44:36;5.38;;;2.58;;
80215;SDS011;69532;37.974;23.708;2023-04-25T07:47:05;5.85;;;2.55;;
80215;SDS011;69532;37.974;23.708;2023-04-25T07:49:32;5.70;;;2.20;;
80215;SDS011;69532;37.974;23.708;2023-04-25T07:51:59;6.35;;;2.40;;
80215;SDS011;69532;37.974;23.708;2023-04-25T07:54:25;5.90;;;2.22;;
80215;SDS011;69532;37.974;23.708;2023-04-25T07:56:51;4.60;;;2.30;;
80215;SDS011;69532;37.974;23.708;2023-04-25T07:59:17;5.80;;;2.47;;
80215;SDS011;69532;37.974;23.708;2023-04-25T08:01:43;5.30;;;2.40;;
80215;SDS011;69532;37.974;23.708;2023-04-25T08:04:09;4.38;;;2.13;;
80215;SDS011;69532;37.974;23.708;2023-04-25T08:06:35;5.40;;;2.10;;
80215;SDS011;69532;37.974;23.708;2023-04-25T08:09:01;6.15;;;2.42;;
80215;SDS011;69532;37.974;23.708;2023-04-25T08:11:28;6.25;;;2.88;;
80215;SDS011;69532;37.974;23.708;2023-04-25T08:13:54;5.90;;;2.22;;
80215;SDS011;69532;37.974;23.708;2023-04-25T08:16:20;5.15;;;2.40;;
80215;SDS011;69532;37.974;23.708;2023-04-25T08:18:46;4.38;;;2.13;;
80215;SDS011;69532;37.974;23.708;2023-04-25T08:21:12;5.65;;;2.08;;
80215;SDS011;69532;37.974;23.708;2023-04-25T08:23:38;5.10;;;2.33;;
80215;SDS011;69532;37.974;23.708;2023-04-25T08:26:04;5.43;;;2.60;;
80215;SDS011;69532;37.974;23.708;2023-04-25T08:28:31;4.65;;;2.25;;
80215;SDS011;69532;37.974;23.708;2023-04-25T08:30:57;4.95;;;2.40;;
80215;SDS011;69532;37.974;23.708;2023-04-25T08:33:23;5.18;;;2.30;;
80215;SDS011;69532;37.974;23.708;2023-04-25T08:35:50;4.97;;;2.28;;
80215;SDS011;69532;37.974;23.708;2023-04-25T08:38:16;6.88;;;2.15;;
80215;SDS011;69532;37.974;23.708;2023-04-25T08:40:43;4.47;;;2.20;;
80215;SDS011;69532;37.974;23.708;2023-04-25T08:43:09;4.53;;;2.17;;
80215;SDS011;69532;37.974;23.708;2023-04-25T08:45:40;4.65;;;2.08;;
80215;SDS011;69532;37.974;23.708;2023-04-25T08:48:13;5.93;;;2.58;;
80215;SDS011;69532;37.974;23.708;2023-04-25T08:50:44;4.95;;;2.00;;
80215;SDS011;69532;37.974;23.708;2023-04-25T08:53:15;5.85;;;2.25;;
80215;SDS011;69532;37.974;23.708;2023-04-25T08:55:45;4.63;;;2.28;;
80215;SDS011;69532;37.974;23.708;2023-04-25T08:58:12;4.57;;;2.28;;
80215;SDS011;69532;37.974;23.708;2023-04-25T09:00:39;5.97;;;2.45;;
80215;SDS011;69532;37.974;23.708;2023-04-25T09:03:05;5.35;;;2.05;;
80215;SDS011;69532;37.974;23.708;2023-04-25T09:05:32;4.07;;;1.98;;
80215;SDS011;69532;37.974;23.708;2023-04-25T09:07:59;5.93;;;2.20;;
80215;SDS011;69532;37.974;23.708;2023-04-25T09:10:26;5.70;;;2.33;;
80215;SDS011;69532;37.974;23.708;2023-04-25T09:15:47;4.50;;;2.10;;
80215;SDS011;69532;37.974;23.708;2023-04-25T09:18:14;6.78;;;2.40;;
80215;SDS011;69532;37.974;23.708;2023-04-25T09:20:49;4.50;;;2.00;;
80215;SDS011;69532;37.974;23.708;2023-04-25T09:23:18;5.43;;;2.20;;
80215;SDS011;69532;37.974;23.708;2023-04-25T09:25:47;4.32;;;2.00;;
80215;SDS011;69532;37.974;23.708;2023-04-25T09:28:14;5.15;;;2.33;;
80215;SDS011;69532;37.974;23.708;2023-04-25T09:30:40;5.43;;;2.45;;
80215;SDS011;69532;37.974;23.708;2023-04-25T09:33:07;6.22;;;2.72;;
80215;SDS011;69532;37.974;23.708;2023-04-25T09:35:45;6.00;;;2.53;;
80215;SDS011;69532;37.974;23.708;2023-04-25T09:38:18;4.72;;;2.42;;
80215;SDS011;69532;37.974;23.708;2023-04-25T09:40:45;5.50;;;2.75;;
80215;SDS011;69532;37.974;23.708;2023-04-25T09:43:22;5.65;;;2.70;;
80215;SDS011;69532;37.974;23.708;2023-04-25T09:45:49;5.07;;;2.60;;
80215;SDS011;69532;37.974;23.708;2023-04-25T09:48:17;5.82;;;2.70;;
80215;SDS011;69532;37.974;23.708;2023-04-25T09:50:45;6.68;;;2.47;;
80215;SDS011;69532;37.974;23.708;2023-04-25T09:53:29;5.95;;;2.40;;
80215;SDS011;69532;37.974;23.708;2023-04-25T09:55:57;5.05;;;2.50;;
80215;SDS011;69532;37.974;23.708;2023-04-25T09:58:25;7.32;;;2.60;;
80215;SDS011;69532;37.974;23.708;2023-04-25T10:01:00;5.10;;;2.40;;
80215;SDS011;69532;37.974;23.708;2023-04-25T10:03:32;5.20;;;2.45;;
80215;SDS011;69532;37.974;23.708;2023-04-25T10:05:59;5.47;;;2.50;;
80215;SDS011;69532;37.974;23.708;2023-04-25T10:08:34;6.78;;;2.60;;
80215;SDS011;69532;37.974;23.708;2023-04-25T10:11:03;5.95;;;2.40;;
80215;SDS011;69532;37.974;23.708;2023-04-25T10:13:30;5.15;;;2.38;;
80215;SDS011;69532;37.974;23.708;2023-04-25T10:16:00;6.25;;;2.95;;
80215;SDS011;69532;37.974;23.708;2023-04-25T10:18:28;5.32;;;2.42;;
80215;SDS011;69532;37.974;23.708;2023-04-25T10:20:55;5.18;;;2.40;;
80215;SDS011;69532;37.974;23.708;2023-04-25T10:23:23;5.57;;;2.30;;
80215;SDS011;69532;37.974;23.708;2023-04-25T10:25:50;7.45;;;2.47;;
80215;SDS011;69532;37.974;23.708;2023-04-25T10:28:18;5.03;;;2.22;;
80215;SDS011;69532;37.974;23.708;2023-04-25T10:31:04;5.07;;;2.15;;
80215;SDS011;69532;37.974;23.708;2023-04-25T10:33:33;5.13;;;2.20;;
80215;SDS011;69532;37.974;23.708;2023-04-25T10:36:08;4.65;;;2.47;;
80215;SDS011;69532;37.974;23.708;2023-04-25T10:38:34;5.57;;;2.50;;
80215;SDS011;69532;37.974;23.708;2023-04-25T10:41:02;7.45;;;2.55;;
80215;SDS011;69532;37.974;23.708;2023-04-25T10:46:01;5.47;;;2.83;;
80215;SDS011;69532;37.974;23.708;2023-04-25T10:48:28;6.35;;;2.75;;
80215;SDS011;69532;37.974;23.708;2023-04-25T10:51:08;5.60;;;2.67;;
80215;SDS011;69532;37.974;23.708;2023-04-25T10:53:41;4.85;;;2.50;;
80215;SDS011;69532;37.974;23.708;2023-04-25T10:58:47;5.30;;;2.40;;
80215;SDS011;69532;37.974;23.708;2023-04-25T11:01:14;6.13;;;2.47;;
80215;SDS011;69532;37.974;23.708;2023-04-25T11:03:44;6.40;;;2.95;;
80215;SDS011;69532;37.974;23.708;2023-04-25T11:06:23;5.50;;;2.50;;
80215;SDS011;69532;37.974;23.708;2023-04-25T11:09:18;5.70;;;2.45;;
80215;SDS011;69532;37.974;23.708;2023-04-25T11:11:53;5.20;;;2.38;;
80215;SDS011;69532;37.974;23.708;2023-04-25T11:14:22;5.22;;;2.30;;
80215;SDS011;69532;37.974;23.708;2023-04-25T11:16:54;5.53;;;2.30;;
80215;SDS011;69532;37.974;23.708;2023-04-25T11:19:21;7.15;;;2.20;;
80215;SDS011;69532;37.974;23.708;2023-04-25T11:21:48;5.35;;;2.00;;
80215;SDS011;69532;37.974;23.708;2023-04-25T11:24:15;4.70;;;2.28;;
80215;SDS011;69532;37.974;23.708;2023-04-25T11:26:42;6.07;;;2.55;;
80215;SDS011;69532;37.974;23.708;2023-04-25T11:29:08;4.93;;;2.20;;
80215;SDS011;69532;37.974;23.708;2023-04-25T11:31:34;4.43;;;2.10;;
80215;SDS011;69532;37.974;23.708;2023-04-25T11:34:00;5.15;;;2.30;;
80215;SDS011;69532;37.974;23.708;2023-04-25T11:36:26;5.05;;;2.13;;
80215;SDS011;69532;37.974;23.708;2023-04-25T11:38:52;4.90;;;2.10;;
80215;SDS011;69532;37.974;23.708;2023-04-25T11:41:19;6.90;;;2.00;;
80215;SDS011;69532;37.974;23.708;2023-04-25T11:43:47;4.55;;;2.20;;
80215;SDS011;69532;37.974;23.708;2023-04-25T11:46:14;4.88;;;2.03;;
80215;SDS011;69532;37.974;23.708;2023-04-25T11:48:41;4.53;;;2.13;;
80215;SDS011;69532;37.974;23.708;2023-04-25T11:51:07;5.07;;;2.22;;
80215;SDS011;69532;37.974;23.708;2023-04-25T11:53:33;6.15;;;2.35;;
80215;SDS011;69532;37.974;23.708;2023-04-25T11:56:00;5.60;;;2.13;;
80215;SDS011;69532;37.974;23.708;2023-04-25T11:58:26;4.78;;;2.00;;
80215;SDS011;69532;37.974;23.708;2023-04-25T12:00:52;4.60;;;2.00;;
80215;SDS011;69532;37.974;23.708;2023-04-25T12:03:19;5.55;;;2.08;;
80215;SDS011;69532;37.974;23.708;2023-04-25T12:05:45;5.22;;;2.05;;
80215;SDS011;69532;37.974;23.708;2023-04-25T12:08:11;7.70;;;2.63;;
80215;SDS011;69532;37.974;23.708;2023-04-25T12:10:39;3.65;;;1.80;;
80215;SDS011;69532;37.974;23.708;2023-04-25T12:13:18;4.88;;;2.08;;
80215;SDS011;69532;37.974;23.708;2023-04-25T12:15:45;4.90;;;2.30;;
80215;SDS011;69532;37.974;23.708;2023-04-25T12:18:11;4.70;;;2.28;;
80215;SDS011;69532;37.974;23.708;2023-04-25T12:20:37;4.43;;;2.17;;
80215;SDS011;69532;37.974;23.708;2023-04-25T12:23:05;5.65;;;2.17;;
80215;SDS011;69532;37.974;23.708;2023-04-25T12:28:15;8.23;;;2.83;;
80215;SDS011;69532;37.974;23.708;2023-04-25T12:30:54;4.95;;;2.40;;
80215;SDS011;69532;37.974;23.708;2023-04-25T12:35:54;4.63;;;2.47;;
80215;SDS011;69532;37.974;23.708;2023-04-25T12:38:24;5.13;;;2.47;;
80215;SDS011;69532;37.974;23.708;2023-04-25T12:40:54;5.18;;;2.40;;
80215;SDS011;69532;37.974;23.708;2023-04-25T12:43:20;5.32;;;2.30;;
80215;SDS011;69532;37.974;23.708;2023-04-25T12:45:50;6.32;;;2.70;;
80215;SDS011;69532;37.974;23.708;2023-04-25T12:48:17;4.47;;;2.20;;
80215;SDS011;69532;37.974;23.708;2023-04-25T12:50:44;5.18;;;2.42;;
80215;SDS011;69532;37.974;23.708;2023-04-25T12:53:10;4.57;;;2.33;;
80215;SDS011;69532;37.974;23.708;2023-04-25T12:55:39;7.07;;;2.60;;
80215;SDS011;69532;37.974;23.708;2023-04-25T12:58:10;4.63;;;2.25;;
80215;SDS011;69532;37.974;23.708;2023-04-25T13:00:38;5.25;;;2.30;;
80215;SDS011;69532;37.974;23.708;2023-04-25T13:03:04;5.18;;;2.50;;
80215;SDS011;69532;37.974;23.708;2023-04-25T13:05:31;4.47;;;2.35;;
80215;SDS011;69532;37.974;23.708;2023-04-25T13:07:57;4.68;;;2.10;;
80215;SDS011;69532;37.974;23.708;2023-04-25T13:10:24;5.15;;;2.20;;
80215;SDS011;69532;37.974;23.708;2023-04-25T13:12:50;4.70;;;2.15;;
80215;SDS011;69532;37.974;23.708;2023-04-25T13:15:16;4.68;;;2.15;;
80215;SDS011;69532;37.974;23.708;2023-04-25T13:17:42;4.82;;;2.40;;
80215;SDS011;69532;37.974;23.708;2023-04-25T13:20:09;4.80;;;2.28;;
80215;SDS011;69532;37.974;23.708;2023-04-25T13:22:36;5.03;;;2.60;;
80215;SDS011;69532;37.974;23.708;2023-04-25T13:25:03;6.68;;;2.80;;
80215;SDS011;69532;37.974;23.708;2023-04-25T13:27:30;6.30;;;2.50;;
80215;SDS011;69532;37.974;23.708;2023-04-25T13:29:58;5.35;;;2.58;;
80215;SDS011;69532;37.974;23.708;2023-04-25T13:32:25;5.93;;;2.55;;
80215;SDS011;69532;37.974;23.708;2023-04-25T13:34:51;5.22;;;2.30;;
80215;SDS011;69532;37.974;23.708;2023-04-25T13:37:18;5.57;;;2.55;;
80215;SDS011;69532;37.974;23.708;2023-04-25T13:39:44;5.45;;;2.55;;
80215;SDS011;69532;37.974;23.708;2023-04-25T13:42:10;5.40;;;2.50;;
80215;SDS011;69532;37.974;23.708;2023-04-25T13:44:36;4.82;;;2.30;;
80215;SDS011;69532;37.974;23.708;2023-04-25T13:47:02;4.70;;;2.40;;
80215;SDS011;69532;37.974;23.708;2023-04-25T13:49:28;4.80;;;2.35;;
80215;SDS011;69532;37.974;23.708;2023-04-25T13:51:54;4.93;;;2.10;;
80215;SDS011;69532;37.974;23.708;2023-04-25T13:54:20;4.70;;;2.20;;
80215;SDS011;69532;37.974;23.708;2023-04-25T13:56:45;4.82;;;2.70;;
80215;SDS011;69532;37.974;23.708;2023-04-25T13:59:11;4.13;;;1.90;;
80215;SDS011;69532;37.974;23.708;2023-04-25T14:01:37;4.72;;;2.42;;
80215;SDS011;69532;37.974;23.708;2023-04-25T14:04:03;5.53;;;2.38;;
80215;SDS011;69532;37.974;23.708;2023-04-25T14:06:29;4.50;;;2.15;;
80215;SDS011;69532;37.974;23.708;2023-04-25T14:08:56;4.57;;;2.22;;
80215;SDS011;69532;37.974;23.708;2023-04-25T14:11:23;4.45;;;2.38;;
80215;SDS011;69532;37.974;23.708;2023-04-25T14:13:49;4.72;;;2.22;;
80215;SDS011;69532;37.974;23.708;2023-04-25T14:16:15;4.63;;;2.28;;
80215;SDS011;69532;37.974;23.708;2023-04-25T14:18:42;4.53;;;2.25;;
80215;SDS011;69532;37.974;23.708;2023-04-25T14:21:08;4.88;;;2.40;;
80215;SDS011;69532;37.974;23.708;2023-04-25T14:23:34;5.93;;;2.33;;
80215;SDS011;69532;37.974;23.708;2023-04-25T14:26:00;5.50;;;2.45;;
80215;SDS011;69532;37.974;23.708;2023-04-25T14:28:26;5.28;;;2.78;;
80215;SDS011;69532;37.974;23.708;2023-04-25T14:30:52;5.72;;;2.50;;
80215;SDS011;69532;37.974;23.708;2023-04-25T14:33:18;4.97;;;2.20;;
80215;SDS011;69532;37.974;23.708;2023-04-25T14:35:43;4.70;;;2.35;;
80215;SDS011;69532;37.974;23.708;2023-04-25T14:38:09;4.65;;;2.30;;
80215;SDS011;69532;37.974;23.708;2023-04-25T14:40:35;5.95;;;2.75;;
80215;SDS011;69532;37.974;23.708;2023-04-25T14:43:01;6.00;;;2.50;;
80215;SDS011;69532;37.974;23.708;2023-04-25T14:45:27;5.25;;;2.30;;